Time;durP1;ratioP1;P1;durP2;ratioP2;P2;SDS_P1;SDS_P2;PMS_P1;PMS_P2;Temp;Humidity;BMP_temperature;BMP_pressure;BME280_temperature;BME280_humidity;BME280_pressure;Samples;Min_cycle;Max_cycle;Signal;HPM_P1;HPM_P2
2023/03/14 00:01:58;;;;;;;15.60;6.70;;;;;;;7.49;50.99;101042.45;108001;1289;21989;-67
2023/03/14 00:04:23;;;;;;;10.30;4.80;;;;;;;7.50;50.28;101039.83;107985;1289;21996;-66
2023/03/14 00:06:50;;;;;;;9.40;4.00;;;;;;;7.48;51.07;101037.36;107982;1288;21995;-63
2023/03/14 00:09:19;;;;;;;7.30;4.00;;;;;;;7.47;50.44;101035.80;107988;1289;21972;-64
2023/03/14 00:11:45;;;;;;;7.40;3.40;;;;;;;7.51;50.15;101031.82;107936;1288;22180;-65
2023/03/14 00:14:11;;;;;;;6.60;3.50;;;;;;;7.48;50.01;101032.13;107358;1288;1002795;-63
2023/03/14 00:16:46;;;;;;;7.40;3.70;;;;;;;7.47;49.84;101030.02;108060;1289;21959;-63
2023/03/14 00:19:11;;;;;;;8.00;3.30;;;;;;;7.47;49.66;101026.88;108095;1288;21987;-65
2023/03/14 00:21:37;;;;;;;5.10;2.80;;;;;;;7.47;49.84;101024.79;107980;1288;21992;-67
2023/03/14 00:24:05;;;;;;;5.60;2.90;;;;;;;7.46;49.72;101025.13;108088;1288;22019;-64
2023/03/14 00:26:31;;;;;;;7.40;2.90;;;;;;;7.46;50.13;101020.41;108091;1288;21989;-66
2023/03/14 00:28:57;;;;;;;5.60;2.60;;;;;;;7.45;50.53;101017.96;107962;1289;21990;-65
2023/03/14 00:31:23;;;;;;;4.70;2.60;;;;;;;7.45;50.12;101013.42;108113;1277;22102;-64
2023/03/14 00:33:51;;;;;;;6.30;3.20;;;;;;;7.46;50.39;101013.61;107338;1288;1002549;-67
2023/03/14 00:36:17;;;;;;;7.10;4.10;;;;;;;7.40;50.40;101008.29;108038;1288;21996;-64
2023/03/14 00:38:44;;;;;;;5.20;2.50;;;;;;;7.34;50.26;101008.93;108142;1288;21998;-67
2023/03/14 00:41:17;;;;;;;8.20;3.30;;;;;;;7.37;50.29;101006.86;108214;1288;21981;-67
2023/03/14 00:43:44;;;;;;;3.90;2.60;;;;;;;7.47;49.95;101000.69;108106;1288;22044;-67
2023/03/14 00:46:10;;;;;;;3.80;2.10;;;;;;;7.49;49.81;100999.48;108010;1289;22006;-66
2023/03/14 00:48:39;;;;;;;4.90;2.50;;;;;;;7.49;49.48;100997.56;108000;1289;21987;-67
2023/03/14 00:51:06;;;;;;;8.30;3.00;;;;;;;7.46;50.50;100995.09;107976;1289;21975;-64
2023/03/14 00:53:41;;;;;;;4.60;2.40;;;;;;;7.44;50.31;100994.90;108040;1289;21992;-64
2023/03/14 00:56:09;;;;;;;5.70;2.40;;;;;;;7.43;50.36;100991.39;107695;1289;21987;-67
2023/03/14 00:58:35;;;;;;;6.20;2.70;;;;;;;7.44;50.25;100989.48;108060;1289;22009;-64
2023/03/14 01:01:08;;;;;;;5.10;2.30;;;;;;;7.47;50.12;100987.77;107997;1289;21986;-67
2023/03/14 01:03:34;;;;;;;4.80;2.20;;;;;;;7.47;50.29;100982.70;108047;1276;22000;-67
2023/03/14 01:06:14;;;;;;;4.80;2.50;;;;;;;7.48;50.32;100982.89;108006;1289;22044;-65
2023/03/14 01:08:42;;;;;;;4.90;2.80;;;;;;;7.49;50.26;100982.91;108029;1288;23053;-67
2023/03/14 01:11:10;;;;;;;6.60;3.00;;;;;;;7.48;50.75;100985.34;107306;1289;1002477;-68
2023/03/14 01:13:36;;;;;;;5.70;2.70;;;;;;;7.47;50.75;100986.72;108068;1288;22026;-67
2023/03/14 01:16:04;;;;;;;5.70;2.70;;;;;;;7.47;50.61;100985.85;107988;1288;21987;-63
2023/03/14 01:18:31;;;;;;;6.20;3.20;;;;;;;7.46;50.48;100987.59;108038;1289;21994;-64
2023/03/14 01:20:58;;;;;;;7.20;2.60;;;;;;;7.46;50.43;100987.05;107097;1289;1003108;-65
2023/03/14 01:23:24;;;;;;;4.80;2.80;;;;;;;7.43;50.64;100988.43;107705;1289;23682;-64
2023/03/14 01:25:51;;;;;;;6.80;2.90;;;;;;;7.44;50.36;100996.12;107999;1289;22005;-64
2023/03/14 01:28:17;;;;;;;4.90;2.60;;;;;;;7.43;50.50;101004.67;108023;1288;22024;-66
2023/03/14 01:30:42;;;;;;;3.80;2.40;;;;;;;7.42;50.45;101014.96;107972;1289;22460;-68
2023/03/14 01:33:14;;;;;;;5.90;2.60;;;;;;;7.43;50.11;101015.15;107999;1289;24580;-64
2023/03/14 01:35:40;;;;;;;5.70;2.50;;;;;;;7.45;49.81;101012.90;107664;1288;21998;-66
2023/03/14 01:38:11;;;;;;;5.10;2.40;;;;;;;7.45;50.08;101019.02;108094;1288;21990;-67
2023/03/14 01:40:44;;;;;;;5.70;2.20;;;;;;;7.38;50.36;101022.42;107895;1288;22027;-67
2023/03/14 01:43:17;;;;;;;4.60;2.40;;;;;;;7.30;50.20;101020.94;107994;1289;21978;-66
2023/03/14 01:46:05;;;;;;;4.60;2.20;;;;;;;7.25;49.92;101017.73;107265;1288;1002588;-64
2023/03/14 01:48:49;;;;;;;6.20;2.70;;;;;;;7.22;50.11;101017.53;108090;1288;21994;-64
2023/03/14 01:51:30;;;;;;;4.60;2.30;;;;;;;7.20;50.20;101016.27;108073;1288;22105;-67
2023/03/14 01:54:06;;;;;;;6.80;2.70;;;;;;;7.10;50.72;101021.05;107977;1289;23695;-68
2023/03/14 01:56:33;;;;;;;3.90;2.30;;;;;;;7.02;50.03;101021.98;108058;1288;21991;-68
2023/03/14 01:58:59;;;;;;;6.30;2.70;;;;;;;6.98;49.75;101020.55;108117;1288;22028;-66
2023/03/14 02:01:25;;;;;;;8.20;3.00;;;;;;;6.91;50.27;101021.87;107904;1288;21988;-64
2023/03/14 02:03:56;;;;;;;7.10;2.80;;;;;;;6.87;50.45;101022.85;108100;1288;21998;-67
2023/03/14 02:06:26;;;;;;;;;;;;;;;6.87;50.61;101021.96;108201;1288;22011;-64
2023/03/14 02:08:52;;;;;;;4.90;2.30;;;;;;;6.86;50.51;101022.31;107159;1288;1002657;-64
2023/03/14 02:11:21;;;;;;;8.10;2.50;;;;;;;6.87;50.26;101020.58;107933;1288;21988;-67
2023/03/14 02:13:47;;;;;;;6.20;2.20;;;;;;;6.88;50.31;101018.67;107877;1288;21984;-68
2023/03/14 02:16:13;;;;;;;7.20;2.70;;;;;;;6.88;50.35;101020.23;108125;1288;21993;-67
2023/03/14 02:18:43;;;;;;;5.30;2.70;;;;;;;6.86;50.64;101022.31;108053;1288;21988;-64
2023/03/14 02:21:14;;;;;;;5.40;2.40;;;;;;;6.85;50.06;101019.33;107890;1289;21986;-65
2023/03/14 02:23:43;;;;;;;;;;;;;;;6.87;50.18;101019.52;107998;1289;22526;-64
2023/03/14 02:26:11;;;;;;;2.70;1.70;;;;;;;6.90;50.41;101020.43;108099;1288;21995;-65
2023/03/14 02:28:37;;;;;;;4.80;2.40;;;;;;;6.94;50.60;101020.66;108088;1289;21997;-67
2023/03/14 02:31:03;;;;;;;6.40;2.40;;;;;;;6.97;51.23;101015.30;107296;1288;1002597;-66
2023/03/14 02:33:29;;;;;;;6.40;2.60;;;;;;;7.01;51.12;101015.17;107998;1288;21996;-67
2023/03/14 02:35:57;;;;;;;5.70;2.40;;;;;;;7.05;50.92;101018.89;107978;1288;22001;-67
2023/03/14 02:38:41;;;;;;;5.70;2.00;;;;;;;7.06;51.08;101019.95;108153;1288;21992;-66
2023/03/14 02:41:07;;;;;;;4.80;2.20;;;;;;;7.07;51.07;101022.91;108145;1288;21989;-64
2023/03/14 02:43:34;;;;;;;5.50;2.60;;;;;;;7.07;51.01;101025.71;107971;1288;22039;-65
2023/03/14 02:46:01;;;;;;;8.30;2.50;;;;;;;7.08;51.27;101024.69;107992;1288;21993;-67
2023/03/14 02:48:41;;;;;;;8.00;2.80;;;;;;;7.10;50.97;101028.73;107841;1288;21987;-68
2023/03/14 02:51:07;;;;;;;;;;;;;;;7.10;50.95;101031.86;108026;1282;22007;-64
2023/03/14 02:53:35;;;;;;;5.50;2.50;;;;;;;7.10;50.74;101031.68;108060;1286;23772;-67
2023/03/14 02:56:01;;;;;;;4.90;2.40;;;;;;;7.08;51.01;101029.39;107994;1284;21997;-64
2023/03/14 02:58:27;;;;;;;9.80;2.40;;;;;;;7.05;50.79;101028.84;107849;1288;21988;-67
2023/03/14 03:00:53;;;;;;;4.30;2.80;;;;;;;7.01;51.09;101030.54;108079;1288;22027;-65
2023/03/14 03:03:20;;;;;;;4.70;2.20;;;;;;;6.98;50.92;101027.20;107933;1288;24100;-65
2023/03/14 03:05:50;;;;;;;5.00;2.30;;;;;;;6.96;50.50;101024.17;106996;1279;1002625;-64
2023/03/14 03:08:17;;;;;;;5.40;2.20;;;;;;;6.92;50.43;101022.73;107988;1288;23644;-67
2023/03/14 03:10:42;;;;;;;5.10;2.90;;;;;;;6.87;50.67;101018.30;108028;1288;21999;-64
2023/03/14 03:13:08;;;;;;;3.70;2.40;;;;;;;6.82;50.80;101016.33;108065;1288;22700;-67
2023/03/14 03:15:34;;;;;;;6.30;2.60;;;;;;;6.81;50.85;101015.09;107992;1288;22067;-67
2023/03/14 03:18:03;;;;;;;5.80;2.00;;;;;;;6.81;51.05;101015.44;107992;1288;21992;-64
2023/03/14 03:20:29;;;;;;;4.00;2.00;;;;;;;6.82;51.58;101016.86;107903;1288;22001;-64
2023/03/14 03:22:55;;;;;;;4.60;2.60;;;;;;;6.85;51.60;101015.67;107206;1288;1007081;-65
2023/03/14 03:25:21;;;;;;;6.80;2.20;;;;;;;6.90;51.28;101013.98;108053;1288;21992;-65
2023/03/14 03:27:47;;;;;;;3.80;2.40;;;;;;;6.93;51.53;101008.95;108071;1288;21992;-67
2023/03/14 03:30:15;;;;;;;5.80;2.40;;;;;;;6.94;51.20;101004.45;108028;1288;22458;-64
2023/03/14 03:32:41;;;;;;;4.40;2.20;;;;;;;6.95;51.28;101007.07;108022;1287;23621;-64
2023/03/14 03:35:10;;;;;;;6.50;2.90;;;;;;;6.96;51.23;101006.73;107960;1288;21988;-67
2023/03/14 03:37:36;;;;;;;5.20;2.20;;;;;;;6.96;51.51;101001.86;108064;1288;21956;-64
2023/03/14 03:40:06;;;;;;;5.00;2.70;;;;;;;6.96;51.39;101003.42;108075;1288;23682;-64
2023/03/14 03:42:33;;;;;;;4.20;1.90;;;;;;;6.93;50.88;101003.74;108100;1288;22072;-64
2023/03/14 03:44:59;;;;;;;5.30;2.50;;;;;;;6.89;50.75;101001.41;108074;1288;21993;-65
2023/03/14 03:47:25;;;;;;;3.60;2.20;;;;;;;6.84;50.75;100996.98;108057;1288;23039;-67
2023/03/14 03:49:51;;;;;;;3.30;1.80;;;;;;;6.81;51.07;100998.70;108047;1288;21993;-66
2023/03/14 03:52:16;;;;;;;4.00;2.00;;;;;;;6.78;50.91;101000.75;108026;1288;21988;-64
2023/03/14 03:54:43;;;;;;;3.30;1.80;;;;;;;6.72;51.13;101001.02;107987;1288;22030;-64
2023/03/14 03:57:09;;;;;;;3.80;2.20;;;;;;;6.67;51.15;100998.85;108002;1288;21985;-64
2023/03/14 03:59:36;;;;;;;4.00;2.10;;;;;;;6.63;50.77;100999.33;107970;1288;21998;-65
2023/03/14 04:02:02;;;;;;;5.50;2.10;;;;;;;6.58;50.59;100998.05;108025;1288;23631;-67
2023/03/14 04:04:27;;;;;;;6.00;2.00;;;;;;;6.53;50.72;101001.46;107974;1285;21982;-64
2023/03/14 04:06:53;;;;;;;6.20;2.40;;;;;;;6.50;50.44;101006.13;107970;1288;22005;-64
2023/03/14 04:09:19;;;;;;;4.70;2.20;;;;;;;6.47;50.77;101008.70;108069;1288;22010;-65
2023/03/14 04:11:49;;;;;;;3.40;1.70;;;;;;;6.53;50.73;101011.40;108177;1288;24011;-65
2023/03/14 04:14:15;;;;;;;3.40;1.60;;;;;;;6.55;49.97;101016.14;108086;1288;23078;-64
2023/03/14 04:16:41;;;;;;;4.90;1.90;;;;;;;6.55;50.08;101013.86;108033;1288;24456;-67
2023/03/14 04:19:07;;;;;;;4.70;1.90;;;;;;;6.53;49.82;101019.42;108050;1288;22057;-67
2023/03/14 04:21:33;;;;;;;4.70;2.10;;;;;;;6.52;49.76;101022.38;107986;1289;21995;-65
2023/03/14 04:23:59;;;;;;;2.80;1.70;;;;;;;6.51;49.58;101022.01;107734;1289;24404;-68
2023/03/14 04:26:25;;;;;;;3.60;2.00;;;;;;;6.48;49.88;101018.98;108052;1288;21994;-67
2023/03/14 04:28:51;;;;;;;4.70;2.00;;;;;;;6.45;49.80;101021.56;107985;1289;22011;-67
2023/03/14 04:31:19;;;;;;;3.60;1.80;;;;;;;6.45;50.05;101023.64;108005;1288;22006;-67
2023/03/14 04:33:45;;;;;;;4.40;1.70;;;;;;;6.45;50.45;101021.04;108095;1288;22005;-67
2023/03/14 04:36:11;;;;;;;2.80;1.80;;;;;;;6.45;50.32;101016.33;108127;1288;24310;-68
2023/03/14 04:38:37;;;;;;;3.60;1.80;;;;;;;6.48;50.48;101015.50;108078;1287;21989;-66
2023/03/14 04:41:03;;;;;;;4.30;2.20;;;;;;;6.52;50.47;101017.48;107991;1288;22453;-66
2023/03/14 04:43:28;;;;;;;3.40;1.90;;;;;;;6.57;50.38;101015.48;108060;1288;22000;-67
2023/03/14 04:45:55;;;;;;;4.70;1.70;;;;;;;6.63;50.59;101015.73;108025;1287;21992;-67
2023/03/14 04:48:23;;;;;;;6.20;1.50;;;;;;;6.69;50.55;101017.73;108065;1289;21990;-68
2023/03/14 04:50:50;;;;;;;3.40;1.50;;;;;;;6.76;50.79;101019.39;108013;1289;21992;-69
2023/03/14 04:53:17;;;;;;;3.30;1.70;;;;;;;6.81;51.76;101021.55;108054;1289;21992;-66
2023/03/14 04:55:47;;;;;;;4.00;2.10;;;;;;;6.90;51.52;101019.56;108016;1289;22451;-66
2023/03/14 04:58:13;;;;;;;3.40;1.70;;;;;;;7.00;51.84;101016.91;107990;1289;22049;-66
2023/03/14 05:00:39;;;;;;;5.40;1.80;;;;;;;7.07;52.31;101014.90;108016;1281;22462;-69
2023/03/14 05:03:05;;;;;;;3.70;1.80;;;;;;;7.14;53.55;101014.98;108011;1288;21990;-69
2023/03/14 05:05:31;;;;;;;3.40;1.40;;;;;;;7.25;53.29;101016.52;107994;1289;21993;-71
2023/03/14 05:07:57;;;;;;;2.80;1.70;;;;;;;7.35;53.76;101011.73;107987;1289;22062;-69
2023/03/14 05:10:23;;;;;;;5.30;1.80;;;;;;;7.46;54.35;101013.24;108017;1289;21995;-66
2023/03/14 05:12:49;;;;;;;4.60;1.80;;;;;;;7.61;54.11;101014.62;107696;1289;21994;-66
2023/03/14 05:15:16;;;;;;;3.80;1.60;;;;;;;7.75;54.57;101018.25;108060;1287;22101;-66
2023/03/14 05:17:44;;;;;;;4.10;1.70;;;;;;;7.90;55.44;101020.48;108078;1288;21992;-69
2023/03/14 05:20:13;;;;;;;5.50;2.10;;;;;;;8.06;55.48;101020.29;107969;1288;22001;-68
2023/03/14 05:22:39;;;;;;;4.50;2.10;;;;;;;8.24;55.37;101021.11;108023;1289;21995;-70
2023/03/14 05:25:06;;;;;;;4.10;1.90;;;;;;;8.42;55.83;101020.20;108000;1280;22032;-70
2023/03/14 05:27:34;;;;;;;3.90;2.00;;;;;;;8.58;56.07;101017.36;108059;1288;23055;-70
2023/03/14 05:30:02;;;;;;;4.30;1.90;;;;;;;8.75;56.20;101018.34;107983;1288;21991;-70
2023/03/14 05:32:28;;;;;;;4.40;2.00;;;;;;;8.93;55.70;101016.51;108039;1288;23784;-66
2023/03/14 05:34:58;;;;;;;5.60;2.10;;;;;;;9.08;56.80;101019.71;107868;1289;21991;-69
2023/03/14 05:37:26;;;;;;;5.60;2.70;;;;;;;9.26;56.70;101018.73;108008;1289;21998;-71
2023/03/14 05:39:53;;;;;;;4.50;2.30;;;;;;;9.40;57.74;101019.13;108104;1288;22006;-70
2023/03/14 05:42:19;;;;;;;4.10;2.20;;;;;;;9.54;58.63;101018.63;108145;1288;22003;-69
2023/03/14 05:44:44;;;;;;;5.90;2.50;;;;;;;9.68;59.02;101020.94;108079;1288;21998;-68
2023/03/14 05:47:11;;;;;;;5.50;2.00;;;;;;;9.85;59.08;101015.54;108162;1288;21987;-66
2023/03/14 05:49:37;;;;;;;4.60;2.00;;;;;;;9.97;59.54;101014.49;108067;1288;21991;-65
2023/03/14 05:52:03;;;;;;;5.60;2.30;;;;;;;10.15;58.94;101015.02;108058;1288;21994;-70
2023/03/14 05:54:29;;;;;;;3.70;2.20;;;;;;;10.29;59.83;101009.73;108009;1288;21990;-65
2023/03/14 05:56:54;;;;;;;4.40;2.20;;;;;;;10.47;59.49;101004.31;107899;1289;21959;-65
2023/03/14 05:59:20;;;;;;;4.90;2.10;;;;;;;10.65;59.17;101003.92;108047;1288;21990;-69
2023/03/14 06:01:46;;;;;;;6.40;2.00;;;;;;;10.81;58.92;100998.60;108089;1288;22120;-69
2023/03/14 06:04:13;;;;;;;6.50;2.40;;;;;;;10.95;58.87;100996.27;108054;1288;21989;-67
2023/03/14 06:06:39;;;;;;;6.10;2.00;;;;;;;11.06;59.28;100993.95;107988;1288;22221;-68
2023/03/14 06:09:05;;;;;;;5.20;2.00;;;;;;;11.23;58.62;100993.69;108031;1281;21997;-69
2023/03/14 06:11:34;;;;;;;4.00;1.90;;;;;;;11.39;59.34;100987.98;108098;1285;21995;-67
2023/03/14 06:14:01;;;;;;;7.80;2.80;;;;;;;11.51;60.82;100987.20;107988;1288;22084;-67
2023/03/14 06:16:26;;;;;;;3.90;1.70;;;;;;;11.65;60.53;100983.94;108085;1288;21993;-66
2023/03/14 06:18:54;;;;;;;5.00;2.10;;;;;;;11.75;60.36;100984.58;107996;1287;21995;-69
2023/03/14 06:21:21;;;;;;;6.30;2.30;;;;;;;11.87;59.83;100980.80;107993;1287;22031;-67
2023/03/14 06:23:46;;;;;;;7.60;2.20;;;;;;;11.93;60.61;100981.45;107967;1284;22004;-67
2023/03/14 06:26:12;;;;;;;4.20;1.90;;;;;;;11.97;61.42;100977.37;108035;1288;21979;-67
2023/03/14 06:28:39;;;;;;;6.10;2.80;;;;;;;12.10;61.61;100972.70;107919;1288;23810;-68
2023/03/14 06:31:05;;;;;;;5.70;1.80;;;;;;;12.26;60.94;100969.23;107998;1284;21989;-67
2023/03/14 06:33:31;;;;;;;7.40;2.70;;;;;;;12.42;59.98;100966.42;107967;1288;22162;-68
2023/03/14 06:36:04;;;;;;;7.60;2.40;;;;;;;12.58;59.87;100960.27;108043;1288;22008;-66
2023/03/14 06:38:30;;;;;;;4.70;1.90;;;;;;;12.67;59.13;100959.98;108040;1288;22003;-66
2023/03/14 06:40:56;;;;;;;5.20;2.50;;;;;;;12.81;58.36;100962.80;107989;1288;22022;-67
2023/03/14 06:43:22;;;;;;;9.20;2.50;;;;;;;12.97;57.76;100962.98;108030;1288;21993;-68
2023/03/14 06:45:48;;;;;;;4.70;2.30;;;;;;;13.05;56.98;100959.34;108034;1288;21996;-67
2023/03/14 06:48:13;;;;;;;7.50;2.40;;;;;;;13.23;56.33;100956.28;108111;1286;21983;-68
2023/03/14 06:50:41;;;;;;;5.70;1.70;;;;;;;13.40;55.72;100953.42;108092;1288;21989;-66
2023/03/14 06:53:10;;;;;;;3.80;1.70;;;;;;;13.55;55.02;100955.32;108084;1288;22005;-67
2023/03/14 06:55:36;;;;;;;4.70;1.90;;;;;;;13.63;54.22;100959.59;108094;1288;23743;-67
2023/03/14 06:58:02;;;;;;;6.90;2.80;;;;;;;13.74;53.88;100955.19;108060;1288;22457;-67
2023/03/14 07:00:28;;;;;;;5.70;1.80;;;;;;;13.87;53.37;100955.52;108072;1288;21991;-68
2023/03/14 07:02:54;;;;;;;7.60;1.80;;;;;;;13.99;52.09;100951.25;108076;1288;22466;-68
2023/03/14 07:05:22;;;;;;;3.50;1.80;;;;;;;14.03;51.80;100940.59;108067;1288;21989;-67
2023/03/14 07:07:50;;;;;;;5.20;1.80;;;;;;;14.09;50.88;100935.55;108166;1286;21996;-66
2023/03/14 07:10:16;;;;;;;7.20;1.80;;;;;;;14.18;50.45;100932.57;108039;1288;21991;-66
2023/03/14 07:12:42;;;;;;;5.00;1.90;;;;;;;14.28;50.09;100933.09;108001;1288;21994;-66
2023/03/14 07:15:08;;;;;;;3.30;1.70;;;;;;;14.26;49.83;100930.13;108026;1288;21992;-67
2023/03/14 07:17:35;;;;;;;4.70;2.10;;;;;;;14.36;49.79;100928.85;108060;1288;22037;-67
2023/03/14 07:20:04;;;;;;;7.60;1.90;;;;;;;14.56;49.54;100927.26;108124;1282;22000;-67
2023/03/14 07:22:30;;;;;;;6.50;1.80;;;;;;;14.79;48.94;100922.55;108106;1288;23057;-67
2023/03/14 07:24:56;;;;;;;8.20;1.20;;;;;;;14.99;47.11;100922.32;107985;1278;22003;-67
2023/03/14 07:27:22;;;;;;;10.00;1.70;;;;;;;15.14;46.17;100920.39;107997;1289;22032;-67
2023/03/14 07:29:48;;;;;;;4.60;1.30;;;;;;;15.21;45.37;100917.60;108009;1288;21993;-66
2023/03/14 07:32:14;;;;;;;5.20;1.70;;;;;;;15.25;44.74;100915.71;107998;1288;21986;-65
2023/03/14 07:34:42;;;;;;;5.30;1.40;;;;;;;15.42;45.13;100916.04;108160;1288;22027;-67
2023/03/14 07:37:08;;;;;;;4.10;1.30;;;;;;;15.52;43.74;100912.61;108146;1288;22037;-67
2023/03/14 07:39:37;;;;;;;4.50;1.30;;;;;;;15.57;43.71;100911.25;108073;1288;21999;-69
2023/03/14 07:42:03;;;;;;;3.20;1.20;;;;;;;15.67;43.82;100906.23;107964;1288;21992;-65
2023/03/14 07:44:28;;;;;;;4.20;1.70;;;;;;;15.74;44.08;100904.46;107985;1288;21999;-67
2023/03/14 07:46:54;;;;;;;4.60;1.50;;;;;;;15.90;44.56;100902.14;107967;1287;21998;-67
2023/03/14 07:49:20;;;;;;;3.00;1.20;;;;;;;16.00;43.62;100900.30;108003;1287;21983;-68
2023/03/14 07:51:48;;;;;;;5.60;1.40;;;;;;;16.06;43.20;100899.09;108123;1287;21991;-67
2023/03/14 07:54:14;;;;;;;4.50;1.50;;;;;;;16.10;42.80;100895.42;108097;1287;21995;-67
2023/03/14 07:56:40;;;;;;;5.20;1.50;;;;;;;16.21;43.15;100893.89;108089;1288;22010;-68
2023/03/14 07:59:07;;;;;;;5.20;1.30;;;;;;;16.34;42.88;100893.88;108057;1288;21994;-68
2023/03/14 08:01:33;;;;;;;2.60;1.00;;;;;;;16.49;42.70;100891.89;108066;1288;21987;-68
2023/03/14 08:04:02;;;;;;;5.30;1.40;;;;;;;16.64;42.75;100887.89;108028;1289;22000;-68
2023/03/14 08:06:28;;;;;;;6.80;1.70;;;;;;;16.85;42.67;100884.45;108025;1289;21985;-66
2023/03/14 08:08:54;;;;;;;4.10;1.50;;;;;;;16.98;42.43;100883.17;108027;1289;22457;-66
2023/03/14 08:11:19;;;;;;;6.00;1.80;;;;;;;16.99;41.60;100885.81;107912;1289;21993;-66
2023/03/14 08:13:49;;;;;;;4.80;1.30;;;;;;;17.07;41.34;100877.41;107934;1289;22001;-68
2023/03/14 08:16:17;;;;;;;5.70;1.40;;;;;;;17.05;40.30;100873.40;108312;1289;21995;-68
2023/03/14 08:18:46;;;;;;;5.30;1.20;;;;;;;17.22;40.49;100874.82;108035;1289;23718;-68
2023/03/14 08:21:12;;;;;;;13.80;4.20;;;;;;;17.23;40.37;100874.08;107973;1289;22007;-67
2023/03/14 08:23:38;;;;;;;6.90;2.40;;;;;;;17.37;40.49;100875.38;108055;1286;22037;-65
2023/03/14 08:26:04;;;;;;;5.10;1.50;;;;;;;17.56;39.67;100871.02;108097;1288;21996;-68
2023/03/14 08:28:32;;;;;;;4.70;1.50;;;;;;;17.79;39.63;100867.42;108113;1288;21989;-69
2023/03/14 08:30:59;;;;;;;4.80;1.50;;;;;;;17.91;38.38;100861.36;108071;1288;21983;-68
2023/03/14 08:33:26;;;;;;;3.30;1.20;;;;;;;18.00;38.36;100859.80;108147;1288;21992;-68
2023/03/14 08:35:56;;;;;;;4.50;1.10;;;;;;;18.09;37.48;100854.33;108105;1288;23056;-68
2023/03/14 08:38:22;;;;;;;5.30;1.10;;;;;;;18.03;36.12;100851.36;108098;1288;21994;-67
2023/03/14 08:40:49;;;;;;;3.30;1.10;;;;;;;18.05;36.30;100851.99;107968;1280;21992;-68
2023/03/14 08:43:16;;;;;;;4.20;1.70;;;;;;;17.99;34.92;100852.73;107995;1289;21989;-68
2023/03/14 08:45:42;;;;;;;3.20;1.10;;;;;;;17.92;33.99;100845.33;107979;1289;21994;-67
2023/03/14 08:48:08;;;;;;;11.50;1.40;;;;;;;18.04;34.84;100843.14;107966;1288;21991;-67
2023/03/14 08:50:35;;;;;;;2.50;1.00;;;;;;;17.96;32.86;100842.55;108093;1288;22459;-69
2023/03/14 08:53:02;;;;;;;2.60;0.80;;;;;;;17.93;32.55;100842.27;108097;1288;22000;-67
2023/03/14 08:55:29;;;;;;;5.00;1.40;;;;;;;17.98;32.17;100839.98;108136;1287;22023;-69
2023/03/14 08:57:55;;;;;;;4.10;1.10;;;;;;;18.07;33.10;100838.77;108045;1288;21993;-67
2023/03/14 09:00:26;;;;;;;3.10;1.10;;;;;;;18.30;33.33;100834.41;108070;1288;22027;-67
2023/03/14 09:02:53;;;;;;;6.20;1.20;;;;;;;18.34;31.99;100834.61;108094;1288;21989;-69
2023/03/14 09:05:19;;;;;;;1.90;0.80;;;;;;;18.46;31.79;100832.75;108084;1288;22007;-68
2023/03/14 09:07:46;;;;;;;2.80;0.90;;;;;;;18.53;31.04;100837.44;108101;1288;21984;-68
2023/03/14 09:10:12;;;;;;;5.40;2.80;;;;;;;18.48;30.79;100830.19;108139;1288;21988;-69
2023/03/14 09:12:38;;;;;;;4.20;1.40;;;;;;;18.49;30.87;100826.56;108156;1280;21985;-67
2023/03/14 09:15:06;;;;;;;3.20;0.90;;;;;;;18.62;31.44;100820.41;108092;1288;24098;-67
2023/03/14 09:17:31;;;;;;;2.60;1.00;;;;;;;18.68;30.86;100818.04;108070;1288;21991;-68
2023/03/14 09:19:57;;;;;;;2.40;0.80;;;;;;;18.66;28.63;100813.14;108082;1288;21986;-69
2023/03/14 09:22:25;;;;;;;5.20;1.50;;;;;;;18.59;28.08;100805.95;108018;1289;22000;-68
2023/03/14 09:24:51;;;;;;;2.70;1.20;;;;;;;18.63;28.65;100807.55;107967;1285;21990;-70
2023/03/14 09:27:17;;;;;;;2.40;0.80;;;;;;;18.64;27.69;100805.21;107987;1288;21990;-68
2023/03/14 09:29:42;;;;;;;6.60;2.40;;;;;;;18.73;28.17;100806.45;108042;1288;22180;-67
2023/03/14 09:32:08;;;;;;;2.50;1.10;;;;;;;18.85;28.15;100802.61;108032;1288;21986;-68
2023/03/14 09:34:36;;;;;;;3.60;0.70;;;;;;;18.87;26.58;100797.74;108047;1288;21994;-67
2023/03/14 09:37:02;;;;;;;2.60;0.70;;;;;;;18.98;24.76;100798.38;108018;1286;21990;-67
2023/03/14 09:39:28;;;;;;;2.20;0.50;;;;;;;18.97;24.02;100790.76;108014;1288;22000;-67
2023/03/14 09:41:54;;;;;;;1.50;0.60;;;;;;;19.05;25.34;100785.44;108064;1285;21987;-67
2023/03/14 09:44:39;;;;;;;3.40;0.80;;;;;;;19.04;25.34;100781.80;108011;1288;22171;-66
2023/03/14 09:47:07;;;;;;;2.90;0.70;;;;;;;19.12;26.27;100771.89;107958;1287;23615;-66
2023/03/14 09:49:43;;;;;;;6.30;0.70;;;;;;;19.07;24.76;100770.84;107984;1288;23767;-69
2023/03/14 09:52:15;;;;;;;3.10;0.80;;;;;;;19.28;26.09;100764.42;108013;1288;22115;-67
2023/03/14 09:54:51;;;;;;;2.70;0.80;;;;;;;19.39;25.00;100761.27;107914;1287;22006;-67
2023/03/14 09:57:21;;;;;;;2.60;0.80;;;;;;;19.39;23.67;100755.41;108002;1288;21990;-66
2023/03/14 09:59:48;;;;;;;1.40;0.70;;;;;;;19.44;24.62;100746.30;108059;1286;22459;-68
2023/03/14 10:02:24;;;;;;;5.20;1.50;;;;;;;19.41;24.87;100745.70;108043;1288;25036;-65
2023/03/14 10:04:56;;;;;;;2.50;1.10;;;;;;;19.52;25.11;100737.44;107994;1288;21991;-66
2023/03/14 10:07:32;;;;;;;3.10;0.90;;;;;;;19.53;23.91;100731.85;108017;1288;22003;-66
2023/03/14 10:09:58;;;;;;;4.20;1.30;;;;;;;19.52;22.24;100730.30;108022;1288;21998;-66
2023/03/14 10:12:32;;;;;;;4.00;1.40;;;;;;;19.50;21.14;100722.01;107994;1288;22261;-64
2023/03/14 10:15:06;;;;;;;5.60;1.00;;;;;;;19.51;20.77;100717.17;108011;1288;21992;-67
2023/03/14 10:17:41;;;;;;;2.80;1.10;;;;;;;19.52;20.95;100719.11;108028;1288;22064;-69
2023/03/14 10:20:33;;;;;;;3.40;1.20;;;;;;;19.58;21.58;100714.71;108041;1288;22000;-66
2023/03/14 10:23:24;;;;;;;7.00;2.60;;;;;;;19.49;20.92;100713.52;108119;1288;22006;-62
2023/03/14 10:26:12;;;;;;;3.20;1.40;;;;;;;19.39;21.37;100713.06;108017;1288;22000;-66
2023/03/14 10:28:46;;;;;;;2.60;0.80;;;;;;;19.47;21.97;100712.17;108175;1288;21989;-63
2023/03/14 10:31:11;;;;;;;2.00;0.80;;;;;;;19.58;22.87;100707.81;108072;1288;21997;-63
2023/03/14 10:33:39;;;;;;;12.60;2.20;;;;;;;19.67;22.31;100705.25;108064;1288;21993;-67
2023/03/14 10:36:14;;;;;;;4.40;1.50;;;;;;;19.77;22.49;100707.66;108094;1288;21999;-68
2023/03/14 10:38:43;;;;;;;1.10;0.60;;;;;;;19.96;22.73;100698.42;108082;1288;21995;-68
2023/03/14 10:41:25;;;;;;;2.50;1.00;;;;;;;20.07;23.08;100695.79;107879;1289;21986;-66
2023/03/14 10:43:57;;;;;;;4.30;1.10;;;;;;;20.08;22.65;100689.50;107988;1289;24362;-67
2023/03/14 10:46:25;;;;;;;9.20;1.00;;;;;;;20.20;23.02;100688.09;107876;1289;21991;-66
2023/03/14 10:48:54;;;;;;;3.00;0.90;;;;;;;20.28;22.72;100684.15;107986;1289;22052;-68
2023/03/14 10:51:30;;;;;;;5.10;1.10;;;;;;;20.37;22.73;100674.10;107957;1289;22018;-67
2023/03/14 10:53:59;;;;;;;2.70;1.10;;;;;;;20.48;22.81;100671.05;108007;1289;21996;-68
2023/03/14 10:56:26;;;;;;;3.00;1.10;;;;;;;20.56;22.92;100667.27;108055;1289;22835;-68
2023/03/14 10:58:57;;;;;;;3.00;1.00;;;;;;;20.53;23.01;100661.91;109499;1288;21984;-66
2023/03/14 11:01:37;;;;;;;2.90;1.30;;;;;;;20.39;21.67;100664.53;107901;1288;21997;-67
2023/03/14 11:04:03;;;;;;;4.00;2.10;;;;;;;20.49;22.19;100664.41;108075;1288;22083;-66
2023/03/14 11:06:42;;;;;;;11.80;5.20;;;;;;;20.51;22.31;100662.00;108027;1281;21992;-68
2023/03/14 11:09:35;;;;;;;10.70;6.30;;;;;;;20.52;21.44;100655.17;108020;1288;22001;-68
2023/03/14 11:12:12;;;;;;;3.20;1.30;;;;;;;20.60;21.38;100648.16;107975;1288;22278;-69
2023/03/14 11:14:44;;;;;;;3.40;1.90;;;;;;;20.60;22.02;100647.27;107866;1288;24213;-65
2023/03/14 11:17:31;;;;;;;4.70;1.80;;;;;;;20.62;22.40;100642.00;107903;1287;21998;-64
2023/03/14 11:20:28;;;;;;;6.30;3.30;;;;;;;20.60;21.59;100634.80;108014;1288;22175;-65
2023/03/14 11:23:02;;;;;;;3.50;1.20;;;;;;;20.64;21.51;100634.08;107944;1289;22051;-68
2023/03/14 11:25:39;;;;;;;4.40;1.60;;;;;;;20.67;21.31;100625.35;107973;1278;21991;-65
2023/03/14 11:28:40;;;;;;;9.50;5.70;;;;;;;20.58;21.34;100618.52;107928;1286;22032;-67